sensor_id;sensor_type;location;lat;lon;timestamp;temperature;humidity
56512;DHT22;42408;53.238;5.686;2022-09-09T00:02:00;14.90;99.90
56512;DHT22;42408;53.238;5.686;2022-09-09T00:04:29;14.90;99.90
56512;DHT22;42408;53.238;5.686;2022-09-09T00:07:15;14.90;99.90
56512;DHT22;42408;53.238;5.686;2022-09-09T00:09:47;14.90;99.90
56512;DHT22;42408;53.238;5.686;2022-09-09T00:15:03;14.90;99.90
56512;DHT22;42408;53.238;5.686;2022-09-09T00:23:12;14.80;99.90
56512;DHT22;42408;53.238;5.686;2022-09-09T00:25:49;14.80;99.90
56512;DHT22;42408;53.238;5.686;2022-09-09T00:28:19;14.80;99.90
56512;DHT22;42408;53.238;5.686;2022-09-09T00:30:46;14.80;99.90
56512;DHT22;42408;53.238;5.686;2022-09-09T00:33:15;14.80;99.90
56512;DHT22;42408;53.238;5.686;2022-09-09T00:35:47;14.70;99.90
56512;DHT22;42408;53.238;5.686;2022-09-09T00:38:36;14.80;99.90
56512;DHT22;42408;53.238;5.686;2022-09-09T00:41:18;14.80;99.90
56512;DHT22;42408;53.238;5.686;2022-09-09T00:43:55;14.80;99.90
56512;DHT22;42408;53.238;5.686;2022-09-09T00:46:37;14.70;99.90
56512;DHT22;42408;53.238;5.686;2022-09-09T00:49:18;14.70;99.90
56512;DHT22;42408;53.238;5.686;2022-09-09T00:54:40;14.70;99.90
56512;DHT22;42408;53.238;5.686;2022-09-09T00:59:51;14.80;99.90
56512;DHT22;42408;53.238;5.686;2022-09-09T01:02:51;14.70;99.90
56512;DHT22;42408;53.238;5.686;2022-09-09T01:05:34;14.70;99.90
56512;DHT22;42408;53.238;5.686;2022-09-09T01:08:03;14.70;99.90
56512;DHT22;42408;53.238;5.686;2022-09-09T01:10:49;14.70;99.90
56512;DHT22;42408;53.238;5.686;2022-09-09T01:13:34;14.70;99.90
56512;DHT22;42408;53.238;5.686;2022-09-09T01:16:03;14.70;99.90
56512;DHT22;42408;53.238;5.686;2022-09-09T01:18:33;14.70;99.90
56512;DHT22;42408;53.238;5.686;2022-09-09T01:21:29;14.70;99.90
56512;DHT22;42408;53.238;5.686;2022-09-09T01:24:08;14.70;99.90
56512;DHT22;42408;53.238;5.686;2022-09-09T01:26:46;14.70;99.90
56512;DHT22;42408;53.238;5.686;2022-09-09T01:29:14;14.70;99.90
56512;DHT22;42408;53.238;5.686;2022-09-09T01:31:54;14.60;99.90
56512;DHT22;42408;53.238;5.686;2022-09-09T01:34:21;14.60;99.90
56512;DHT22;42408;53.238;5.686;2022-09-09T01:36:59;14.60;99.90
56512;DHT22;42408;53.238;5.686;2022-09-09T01:39:26;14.60;99.90
56512;DHT22;42408;53.238;5.686;2022-09-09T01:41:53;14.50;99.90
56512;DHT22;42408;53.238;5.686;2022-09-09T01:44:20;14.50;99.90
56512;DHT22;42408;53.238;5.686;2022-09-09T01:46:46;14.50;99.90
56512;DHT22;42408;53.238;5.686;2022-09-09T01:49:12;14.50;99.90
56512;DHT22;42408;53.238;5.686;2022-09-09T01:51:39;14.50;99.90
56512;DHT22;42408;53.238;5.686;2022-09-09T01:54:06;14.50;99.90
56512;DHT22;42408;53.238;5.686;2022-09-09T01:56:54;14.50;99.90
56512;DHT22;42408;53.238;5.686;2022-09-09T01:59:31;14.50;99.90
56512;DHT22;42408;53.238;5.686;2022-09-09T02:04:39;14.40;99.90
56512;DHT22;42408;53.238;5.686;2022-09-09T02:09:43;14.50;99.90
56512;DHT22;42408;53.238;5.686;2022-09-09T02:12:14;14.50;99.90
56512;DHT22;42408;53.238;5.686;2022-09-09T02:14:48;14.50;99.90
56512;DHT22;42408;53.238;5.686;2022-09-09T02:17:19;14.40;99.90
56512;DHT22;42408;53.238;5.686;2022-09-09T02:19:54;14.40;99.90
56512;DHT22;42408;53.238;5.686;2022-09-09T02:22:22;14.40;99.90
56512;DHT22;42408;53.238;5.686;2022-09-09T02:24:50;14.40;99.90
56512;DHT22;42408;53.238;5.686;2022-09-09T02:27:20;14.40;99.90
56512;DHT22;42408;53.238;5.686;2022-09-09T02:29:49;14.50;99.90
56512;DHT22;42408;53.238;5.686;2022-09-09T02:32:19;14.40;99.90
56512;DHT22;42408;53.238;5.686;2022-09-09T02:34:53;14.50;99.90
56512;DHT22;42408;53.238;5.686;2022-09-09T02:37:24;14.50;99.90
56512;DHT22;42408;53.238;5.686;2022-09-09T02:39:54;14.40;99.90
56512;DHT22;42408;53.238;5.686;2022-09-09T02:42:20;14.40;99.90
56512;DHT22;42408;53.238;5.686;2022-09-09T02:44:46;14.30;99.90
56512;DHT22;42408;53.238;5.686;2022-09-09T02:50:10;14.30;99.90
56512;DHT22;42408;53.238;5.686;2022-09-09T02:55:39;14.30;99.90
56512;DHT22;42408;53.238;5.686;2022-09-09T02:58:08;14.30;99.90
56512;DHT22;42408;53.238;5.686;2022-09-09T03:00:35;14.20;99.90
56512;DHT22;42408;53.238;5.686;2022-09-09T03:03:03;14.20;99.90
56512;DHT22;42408;53.238;5.686;2022-09-09T03:05:29;14.20;99.90
56512;DHT22;42408;53.238;5.686;2022-09-09T03:07:54;14.20;99.90
56512;DHT22;42408;53.238;5.686;2022-09-09T03:10:20;14.30;99.90
56512;DHT22;42408;53.238;5.686;2022-09-09T03:12:46;14.20;99.90
56512;DHT22;42408;53.238;5.686;2022-09-09T03:15:11;14.30;99.90
56512;DHT22;42408;53.238;5.686;2022-09-09T03:17:37;14.30;99.90
56512;DHT22;42408;53.238;5.686;2022-09-09T03:20:04;14.20;99.90
56512;DHT22;42408;53.238;5.686;2022-09-09T03:22:29;14.20;99.90
56512;DHT22;42408;53.238;5.686;2022-09-09T03:24:55;14.20;99.90
56512;DHT22;42408;53.238;5.686;2022-09-09T03:27:21;14.20;99.90
56512;DHT22;42408;53.238;5.686;2022-09-09T03:29:46;14.20;99.90
56512;DHT22;42408;53.238;5.686;2022-09-09T03:32:12;14.20;99.90
56512;DHT22;42408;53.238;5.686;2022-09-09T03:34:38;14.20;99.90
56512;DHT22;42408;53.238;5.686;2022-09-09T03:37:07;14.20;99.90
56512;DHT22;42408;53.238;5.686;2022-09-09T03:39:33;14.20;99.90
56512;DHT22;42408;53.238;5.686;2022-09-09T03:41:58;14.20;99.90
56512;DHT22;42408;53.238;5.686;2022-09-09T03:44:24;14.20;99.90
56512;DHT22;42408;53.238;5.686;2022-09-09T03:46:49;14.20;99.90
56512;DHT22;42408;53.238;5.686;2022-09-09T03:49:15;14.20;99.90
56512;DHT22;42408;53.238;5.686;2022-09-09T03:51:42;14.20;99.90
56512;DHT22;42408;53.238;5.686;2022-09-09T03:54:07;14.20;99.90
56512;DHT22;42408;53.238;5.686;2022-09-09T03:56:36;14.30;99.90
56512;DHT22;42408;53.238;5.686;2022-09-09T03:59:02;14.30;99.90
56512;DHT22;42408;53.238;5.686;2022-09-09T04:01:28;14.40;99.90
56512;DHT22;42408;53.238;5.686;2022-09-09T04:03:54;14.40;99.90
56512;DHT22;42408;53.238;5.686;2022-09-09T04:06:22;14.50;99.90
56512;DHT22;42408;53.238;5.686;2022-09-09T04:08:48;14.50;99.90
56512;DHT22;42408;53.238;5.686;2022-09-09T04:11:15;14.50;99.90
56512;DHT22;42408;53.238;5.686;2022-09-09T04:13:41;14.60;99.90
56512;DHT22;42408;53.238;5.686;2022-09-09T04:16:08;14.60;99.90
56512;DHT22;42408;53.238;5.686;2022-09-09T04:18:34;15.40;99.90
56512;DHT22;42408;53.238;5.686;2022-09-09T04:21:00;14.60;99.90
56512;DHT22;42408;53.238;5.686;2022-09-09T04:23:28;14.60;99.90
56512;DHT22;42408;53.238;5.686;2022-09-09T04:25:57;14.70;99.90
56512;DHT22;42408;53.238;5.686;2022-09-09T04:28:25;14.60;99.90
56512;DHT22;42408;53.238;5.686;2022-09-09T04:30:52;14.60;99.90
56512;DHT22;42408;53.238;5.686;2022-09-09T04:33:18;14.60;99.90
56512;DHT22;42408;53.238;5.686;2022-09-09T04:35:45;14.50;99.90
56512;DHT22;42408;53.238;5.686;2022-09-09T04:38:11;14.50;99.90
56512;DHT22;42408;53.238;5.686;2022-09-09T04:40:36;14.50;99.90
56512;DHT22;42408;53.238;5.686;2022-09-09T04:43:03;14.50;99.90
56512;DHT22;42408;53.238;5.686;2022-09-09T04:45:32;14.40;99.90
56512;DHT22;42408;53.238;5.686;2022-09-09T04:47:58;14.40;99.90
56512;DHT22;42408;53.238;5.686;2022-09-09T04:50:24;14.40;99.90
56512;DHT22;42408;53.238;5.686;2022-09-09T04:52:51;14.40;99.90
56512;DHT22;42408;53.238;5.686;2022-09-09T04:55:16;14.40;99.90
56512;DHT22;42408;53.238;5.686;2022-09-09T04:57:42;14.80;99.90
56512;DHT22;42408;53.238;5.686;2022-09-09T05:00:08;14.40;99.90
56512;DHT22;42408;53.238;5.686;2022-09-09T05:02:38;14.40;99.90
56512;DHT22;42408;53.238;5.686;2022-09-09T05:05:05;14.40;99.90
56512;DHT22;42408;53.238;5.686;2022-09-09T05:07:30;14.40;99.90
56512;DHT22;42408;53.238;5.686;2022-09-09T05:09:57;14.40;99.90
56512;DHT22;42408;53.238;5.686;2022-09-09T05:12:23;14.40;99.90
56512;DHT22;42408;53.238;5.686;2022-09-09T05:14:51;14.40;99.90
56512;DHT22;42408;53.238;5.686;2022-09-09T05:17:17;14.40;99.90
56512;DHT22;42408;53.238;5.686;2022-09-09T05:19:43;14.40;99.90
56512;DHT22;42408;53.238;5.686;2022-09-09T05:22:10;14.40;99.90
56512;DHT22;42408;53.238;5.686;2022-09-09T05:24:37;14.40;99.90
56512;DHT22;42408;53.238;5.686;2022-09-09T05:27:03;14.40;99.90
56512;DHT22;42408;53.238;5.686;2022-09-09T05:29:29;14.40;99.90
56512;DHT22;42408;53.238;5.686;2022-09-09T05:31:55;14.50;99.90
56512;DHT22;42408;53.238;5.686;2022-09-09T05:34:20;14.40;99.90
56512;DHT22;42408;53.238;5.686;2022-09-09T05:36:46;14.40;99.90
56512;DHT22;42408;53.238;5.686;2022-09-09T05:39:12;14.40;99.90
56512;DHT22;42408;53.238;5.686;2022-09-09T05:41:38;14.40;99.90
56512;DHT22;42408;53.238;5.686;2022-09-09T05:44:04;14.50;99.90
56512;DHT22;42408;53.238;5.686;2022-09-09T05:46:30;14.50;99.90
56512;DHT22;42408;53.238;5.686;2022-09-09T05:48:56;14.50;99.90
56512;DHT22;42408;53.238;5.686;2022-09-09T05:51:27;14.60;99.90
56512;DHT22;42408;53.238;5.686;2022-09-09T05:53:53;14.50;99.90
56512;DHT22;42408;53.238;5.686;2022-09-09T05:56:22;14.60;99.90
56512;DHT22;42408;53.238;5.686;2022-09-09T05:58:50;14.60;99.90
56512;DHT22;42408;53.238;5.686;2022-09-09T06:01:19;14.60;99.90
56512;DHT22;42408;53.238;5.686;2022-09-09T06:03:46;14.60;99.90
56512;DHT22;42408;53.238;5.686;2022-09-09T06:06:18;14.60;99.90
56512;DHT22;42408;53.238;5.686;2022-09-09T06:08:46;14.70;99.90
56512;DHT22;42408;53.238;5.686;2022-09-09T06:11:15;14.70;99.90
56512;DHT22;42408;53.238;5.686;2022-09-09T06:13:41;14.70;99.90
56512;DHT22;42408;53.238;5.686;2022-09-09T06:16:11;14.80;99.90
56512;DHT22;42408;53.238;5.686;2022-09-09T06:18:41;14.80;99.90
56512;DHT22;42408;53.238;5.686;2022-09-09T06:21:11;14.90;99.90
56512;DHT22;42408;53.238;5.686;2022-09-09T06:23:40;14.90;99.90
56512;DHT22;42408;53.238;5.686;2022-09-09T06:26:13;15.00;99.90
56512;DHT22;42408;53.238;5.686;2022-09-09T06:28:39;15.00;99.90
56512;DHT22;42408;53.238;5.686;2022-09-09T06:31:07;15.00;99.90
56512;DHT22;42408;53.238;5.686;2022-09-09T06:33:38;15.00;99.90
56512;DHT22;42408;53.238;5.686;2022-09-09T06:36:15;15.10;99.90
56512;DHT22;42408;53.238;5.686;2022-09-09T06:38:42;15.10;99.90
56512;DHT22;42408;53.238;5.686;2022-09-09T06:41:09;15.20;99.90
56512;DHT22;42408;53.238;5.686;2022-09-09T06:43:35;15.20;99.90
56512;DHT22;42408;53.238;5.686;2022-09-09T06:46:11;15.20;99.90
56512;DHT22;42408;53.238;5.686;2022-09-09T06:48:39;15.20;99.90
56512;DHT22;42408;53.238;5.686;2022-09-09T06:51:17;15.30;99.90
56512;DHT22;42408;53.238;5.686;2022-09-09T06:53:44;15.30;99.90
56512;DHT22;42408;53.238;5.686;2022-09-09T06:58:42;15.30;99.90
56512;DHT22;42408;53.238;5.686;2022-09-09T07:01:10;15.30;99.90
56512;DHT22;42408;53.238;5.686;2022-09-09T07:03:38;15.40;99.90
56512;DHT22;42408;53.238;5.686;2022-09-09T07:06:04;15.40;99.90
56512;DHT22;42408;53.238;5.686;2022-09-09T07:08:30;15.40;99.90
56512;DHT22;42408;53.238;5.686;2022-09-09T07:11:06;15.40;99.90
56512;DHT22;42408;53.238;5.686;2022-09-09T07:13:33;15.50;99.90
56512;DHT22;42408;53.238;5.686;2022-09-09T07:16:09;15.50;99.90
56512;DHT22;42408;53.238;5.686;2022-09-09T07:18:35;15.50;99.90
56512;DHT22;42408;53.238;5.686;2022-09-09T07:21:02;15.60;99.90
56512;DHT22;42408;53.238;5.686;2022-09-09T07:23:29;15.60;99.90
56512;DHT22;42408;53.238;5.686;2022-09-09T07:25:55;15.70;99.90
56512;DHT22;42408;53.238;5.686;2022-09-09T07:28:22;15.70;99.90
56512;DHT22;42408;53.238;5.686;2022-09-09T07:31:01;15.90;99.90
56512;DHT22;42408;53.238;5.686;2022-09-09T07:33:31;16.00;99.90
56512;DHT22;42408;53.238;5.686;2022-09-09T07:36:05;16.10;99.90
56512;DHT22;42408;53.238;5.686;2022-09-09T07:38:37;16.20;99.90
56512;DHT22;42408;53.238;5.686;2022-09-09T07:41:07;16.20;99.90
56512;DHT22;42408;53.238;5.686;2022-09-09T07:43:38;16.30;99.90
56512;DHT22;42408;53.238;5.686;2022-09-09T07:46:05;16.30;99.90
56512;DHT22;42408;53.238;5.686;2022-09-09T07:48:31;16.30;99.90
56512;DHT22;42408;53.238;5.686;2022-09-09T07:51:09;16.40;99.90
56512;DHT22;42408;53.238;5.686;2022-09-09T07:53:40;16.60;99.90
56512;DHT22;42408;53.238;5.686;2022-09-09T07:56:11;16.90;99.90
56512;DHT22;42408;53.238;5.686;2022-09-09T07:58:38;17.30;99.90
56512;DHT22;42408;53.238;5.686;2022-09-09T08:01:16;17.60;99.90
56512;DHT22;42408;53.238;5.686;2022-09-09T08:03:44;17.60;99.90
56512;DHT22;42408;53.238;5.686;2022-09-09T08:06:10;17.70;99.90
56512;DHT22;42408;53.238;5.686;2022-09-09T08:08:36;17.90;99.90
56512;DHT22;42408;53.238;5.686;2022-09-09T08:11:09;18.10;99.90
56512;DHT22;42408;53.238;5.686;2022-09-09T08:13:36;18.20;99.90
56512;DHT22;42408;53.238;5.686;2022-09-09T08:16:07;18.20;99.90
56512;DHT22;42408;53.238;5.686;2022-09-09T08:18:33;18.20;99.90
56512;DHT22;42408;53.238;5.686;2022-09-09T08:21:06;18.30;99.90
56512;DHT22;42408;53.238;5.686;2022-09-09T08:23:32;18.40;99.90
56512;DHT22;42408;53.238;5.686;2022-09-09T08:26:13;18.40;99.90
56512;DHT22;42408;53.238;5.686;2022-09-09T08:28:39;18.30;99.90
56512;DHT22;42408;53.238;5.686;2022-09-09T08:31:30;18.20;99.90
56512;DHT22;42408;53.238;5.686;2022-09-09T08:33:57;18.10;99.90
56512;DHT22;42408;53.238;5.686;2022-09-09T08:36:26;17.90;99.90
56512;DHT22;42408;53.238;5.686;2022-09-09T08:38:54;17.90;99.90
56512;DHT22;42408;53.238;5.686;2022-09-09T08:54:51;18.20;99.90
56512;DHT22;42408;53.238;5.686;2022-09-09T08:57:19;18.30;99.90
56512;DHT22;42408;53.238;5.686;2022-09-09T08:59:45;18.40;99.90
56512;DHT22;42408;53.238;5.686;2022-09-09T09:05:07;18.40;99.90
56512;DHT22;42408;53.238;5.686;2022-09-09T09:07:56;18.50;99.90
56512;DHT22;42408;53.238;5.686;2022-09-09T09:10:29;18.50;99.90
56512;DHT22;42408;53.238;5.686;2022-09-09T09:12:58;18.40;99.90
56512;DHT22;42408;53.238;5.686;2022-09-09T09:15:31;18.40;99.90
56512;DHT22;42408;53.238;5.686;2022-09-09T09:18:02;18.40;99.90
56512;DHT22;42408;53.238;5.686;2022-09-09T09:23:32;18.20;99.90
56512;DHT22;42408;53.238;5.686;2022-09-09T09:26:00;18.00;99.90
56512;DHT22;42408;53.238;5.686;2022-09-09T09:28:31;17.90;99.90
56512;DHT22;42408;53.238;5.686;2022-09-09T09:31:04;17.90;99.90
56512;DHT22;42408;53.238;5.686;2022-09-09T09:36:02;17.80;99.90
56512;DHT22;42408;53.238;5.686;2022-09-09T09:38:29;17.90;99.90
56512;DHT22;42408;53.238;5.686;2022-09-09T09:40:57;18.10;99.90
56512;DHT22;42408;53.238;5.686;2022-09-09T09:43:33;18.00;99.90
56512;DHT22;42408;53.238;5.686;2022-09-09T09:46:00;18.00;99.90
56512;DHT22;42408;53.238;5.686;2022-09-09T09:48:28;18.00;99.90
56512;DHT22;42408;53.238;5.686;2022-09-09T09:53:26;18.20;99.90
56512;DHT22;42408;53.238;5.686;2022-09-09T09:56:04;18.20;99.90
56512;DHT22;42408;53.238;5.686;2022-09-09T09:58:32;18.30;99.90
56512;DHT22;42408;53.238;5.686;2022-09-09T10:01:00;18.50;99.90
56512;DHT22;42408;53.238;5.686;2022-09-09T10:03:33;18.60;99.90
56512;DHT22;42408;53.238;5.686;2022-09-09T10:06:03;18.90;99.90
56512;DHT22;42408;53.238;5.686;2022-09-09T10:08:34;18.90;99.90
56512;DHT22;42408;53.238;5.686;2022-09-09T10:16:18;18.90;99.90
56512;DHT22;42408;53.238;5.686;2022-09-09T10:19:04;18.90;99.90
56512;DHT22;42408;53.238;5.686;2022-09-09T10:21:48;18.80;99.90
56512;DHT22;42408;53.238;5.686;2022-09-09T10:30:03;18.90;99.90
56512;DHT22;42408;53.238;5.686;2022-09-09T10:35:36;19.10;99.90
56512;DHT22;42408;53.238;5.686;2022-09-09T10:46:26;19.80;99.90
56512;DHT22;42408;53.238;5.686;2022-09-09T10:54:57;19.90;99.90
56512;DHT22;42408;53.238;5.686;2022-09-09T11:00:42;19.90;99.90
56512;DHT22;42408;53.238;5.686;2022-09-09T11:03:23;19.70;99.90
56512;DHT22;42408;53.238;5.686;2022-09-09T11:05:55;19.60;99.90
56512;DHT22;42408;53.238;5.686;2022-09-09T11:08:26;19.70;99.90
56512;DHT22;42408;53.238;5.686;2022-09-09T11:11:06;19.90;99.90
56512;DHT22;42408;53.238;5.686;2022-09-09T11:13:54;19.90;99.90
56512;DHT22;42408;53.238;5.686;2022-09-09T11:16:39;19.90;99.90
56512;DHT22;42408;53.238;5.686;2022-09-09T11:19:22;19.80;99.90
56512;DHT22;42408;53.238;5.686;2022-09-09T11:21:50;19.90;99.90
56512;DHT22;42408;53.238;5.686;2022-09-09T11:24:24;19.80;99.90
56512;DHT22;42408;53.238;5.686;2022-09-09T11:27:16;19.80;99.90
56512;DHT22;42408;53.238;5.686;2022-09-09T11:30:21;19.70;99.90
56512;DHT22;42408;53.238;5.686;2022-09-09T11:32:53;19.60;99.90
56512;DHT22;42408;53.238;5.686;2022-09-09T11:35:31;19.60;99.90
56512;DHT22;42408;53.238;5.686;2022-09-09T11:38:19;19.40;99.90
56512;DHT22;42408;53.238;5.686;2022-09-09T11:40:46;19.10;99.90
56512;DHT22;42408;53.238;5.686;2022-09-09T11:43:24;19.10;99.90
56512;DHT22;42408;53.238;5.686;2022-09-09T11:45:53;19.30;99.90
56512;DHT22;42408;53.238;5.686;2022-09-09T11:48:33;19.60;99.90
56512;DHT22;42408;53.238;5.686;2022-09-09T11:51:06;19.70;99.90
56512;DHT22;42408;53.238;5.686;2022-09-09T11:53:34;19.90;99.90
56512;DHT22;42408;53.238;5.686;2022-09-09T11:58:36;20.00;99.90
56512;DHT22;42408;53.238;5.686;2022-09-09T12:06:44;20.30;99.90
56512;DHT22;42408;53.238;5.686;2022-09-09T12:11:47;20.40;99.90
56512;DHT22;42408;53.238;5.686;2022-09-09T12:14:35;20.30;99.90
56512;DHT22;42408;53.238;5.686;2022-09-09T12:17:19;20.30;99.90
56512;DHT22;42408;53.238;5.686;2022-09-09T12:19:46;20.00;99.90
56512;DHT22;42408;53.238;5.686;2022-09-09T12:27:37;19.90;99.90
56512;DHT22;42408;53.238;5.686;2022-09-09T12:30:11;20.00;99.90
56512;DHT22;42408;53.238;5.686;2022-09-09T12:32:38;19.80;99.90
56512;DHT22;42408;53.238;5.686;2022-09-09T12:37:49;19.60;99.90
56512;DHT22;42408;53.238;5.686;2022-09-09T12:40:22;19.60;99.90
56512;DHT22;42408;53.238;5.686;2022-09-09T12:42:48;19.70;99.90
56512;DHT22;42408;53.238;5.686;2022-09-09T12:45:22;19.80;99.90
56512;DHT22;42408;53.238;5.686;2022-09-09T12:50:23;19.80;99.90
56512;DHT22;42408;53.238;5.686;2022-09-09T12:53:03;19.90;99.90
56512;DHT22;42408;53.238;5.686;2022-09-09T12:55:35;19.90;99.90
56512;DHT22;42408;53.238;5.686;2022-09-09T12:58:02;19.90;99.90
56512;DHT22;42408;53.238;5.686;2022-09-09T13:00:32;20.00;99.90
56512;DHT22;42408;53.238;5.686;2022-09-09T13:03:03;20.00;99.90
56512;DHT22;42408;53.238;5.686;2022-09-09T13:05:39;20.10;99.90
56512;DHT22;42408;53.238;5.686;2022-09-09T13:08:10;20.40;99.90
56512;DHT22;42408;53.238;5.686;2022-09-09T13:13:20;20.50;99.90
56512;DHT22;42408;53.238;5.686;2022-09-09T13:15:59;20.50;99.90
56512;DHT22;42408;53.238;5.686;2022-09-09T13:18:30;20.30;99.90
56512;DHT22;42408;53.238;5.686;2022-09-09T13:20:57;20.30;99.90
56512;DHT22;42408;53.238;5.686;2022-09-09T13:23:31;20.30;99.90
56512;DHT22;42408;53.238;5.686;2022-09-09T13:26:32;20.20;99.90
56512;DHT22;42408;53.238;5.686;2022-09-09T13:28:52;20.10;99.90
56512;DHT22;42408;53.238;5.686;2022-09-09T13:31:23;20.10;99.90
56512;DHT22;42408;53.238;5.686;2022-09-09T13:33:49;20.00;99.90
56512;DHT22;42408;53.238;5.686;2022-09-09T13:36:15;20.10;99.90
56512;DHT22;42408;53.238;5.686;2022-09-09T13:38:55;20.10;99.90
56512;DHT22;42408;53.238;5.686;2022-09-09T13:41:23;20.00;99.90
56512;DHT22;42408;53.238;5.686;2022-09-09T13:43:50;20.00;99.90
56512;DHT22;42408;53.238;5.686;2022-09-09T13:46:38;20.00;99.90
56512;DHT22;42408;53.238;5.686;2022-09-09T13:51:39;19.90;99.90
56512;DHT22;42408;53.238;5.686;2022-09-09T13:54:06;19.70;99.90
56512;DHT22;42408;53.238;5.686;2022-09-09T13:56:33;19.60;99.90
56512;DHT22;42408;53.238;5.686;2022-09-09T13:59:00;19.50;99.90
56512;DHT22;42408;53.238;5.686;2022-09-09T14:01:27;19.50;99.90
56512;DHT22;42408;53.238;5.686;2022-09-09T14:03:53;19.60;99.90
56512;DHT22;42408;53.238;5.686;2022-09-09T14:06:19;19.80;99.90
56512;DHT22;42408;53.238;5.686;2022-09-09T14:08:47;20.10;99.90
56512;DHT22;42408;53.238;5.686;2022-09-09T14:11:14;20.30;99.90
56512;DHT22;42408;53.238;5.686;2022-09-09T14:13:40;20.60;99.90
56512;DHT22;42408;53.238;5.686;2022-09-09T14:16:06;20.50;99.90
56512;DHT22;42408;53.238;5.686;2022-09-09T14:18:31;20.50;99.90
56512;DHT22;42408;53.238;5.686;2022-09-09T14:20:57;20.50;99.90
56512;DHT22;42408;53.238;5.686;2022-09-09T14:23:24;20.70;99.90
56512;DHT22;42408;53.238;5.686;2022-09-09T14:25:50;20.70;99.90
56512;DHT22;42408;53.238;5.686;2022-09-09T14:28:16;20.90;99.90
56512;DHT22;42408;53.238;5.686;2022-09-09T14:30:43;21.00;99.90
56512;DHT22;42408;53.238;5.686;2022-09-09T14:33:14;20.90;99.90
56512;DHT22;42408;53.238;5.686;2022-09-09T14:35:41;20.90;99.90
56512;DHT22;42408;53.238;5.686;2022-09-09T14:38:07;20.90;99.90
56512;DHT22;42408;53.238;5.686;2022-09-09T14:40:35;21.00;99.90
56512;DHT22;42408;53.238;5.686;2022-09-09T14:43:01;21.00;99.90
56512;DHT22;42408;53.238;5.686;2022-09-09T14:45:27;21.10;99.90
56512;DHT22;42408;53.238;5.686;2022-09-09T14:47:54;21.20;99.90
56512;DHT22;42408;53.238;5.686;2022-09-09T14:50:20;21.00;99.90
56512;DHT22;42408;53.238;5.686;2022-09-09T14:52:47;20.90;99.90
56512;DHT22;42408;53.238;5.686;2022-09-09T14:55:14;20.60;99.90
56512;DHT22;42408;53.238;5.686;2022-09-09T14:57:40;20.40;99.90
56512;DHT22;42408;53.238;5.686;2022-09-09T15:00:08;20.30;99.90
56512;DHT22;42408;53.238;5.686;2022-09-09T15:02:34;20.00;99.90
56512;DHT22;42408;53.238;5.686;2022-09-09T15:04:59;19.90;99.90
56512;DHT22;42408;53.238;5.686;2022-09-09T15:07:25;19.80;99.90
56512;DHT22;42408;53.238;5.686;2022-09-09T15:09:52;19.70;99.90
56512;DHT22;42408;53.238;5.686;2022-09-09T15:12:18;19.80;99.90
56512;DHT22;42408;53.238;5.686;2022-09-09T15:14:45;19.80;99.90
56512;DHT22;42408;53.238;5.686;2022-09-09T15:17:10;19.80;99.90
56512;DHT22;42408;53.238;5.686;2022-09-09T15:19:36;19.80;99.90
56512;DHT22;42408;53.238;5.686;2022-09-09T15:22:03;20.10;99.90
56512;DHT22;42408;53.238;5.686;2022-09-09T15:24:31;20.40;99.90
56512;DHT22;42408;53.238;5.686;2022-09-09T15:26:57;20.40;99.90
56512;DHT22;42408;53.238;5.686;2022-09-09T15:29:23;20.30;99.90
56512;DHT22;42408;53.238;5.686;2022-09-09T15:31:49;20.30;99.90
56512;DHT22;42408;53.238;5.686;2022-09-09T15:34:14;20.30;99.90
56512;DHT22;42408;53.238;5.686;2022-09-09T15:36:44;20.40;99.90
56512;DHT22;42408;53.238;5.686;2022-09-09T15:39:13;20.60;99.90
56512;DHT22;42408;53.238;5.686;2022-09-09T15:41:41;20.50;99.90
56512;DHT22;42408;53.238;5.686;2022-09-09T15:44:07;20.50;99.90
56512;DHT22;42408;53.238;5.686;2022-09-09T15:49:11;20.70;99.90
56512;DHT22;42408;53.238;5.686;2022-09-09T15:51:39;20.70;99.90
56512;DHT22;42408;53.238;5.686;2022-09-09T15:54:05;20.50;99.90
56512;DHT22;42408;53.238;5.686;2022-09-09T15:56:31;20.60;99.90
56512;DHT22;42408;53.238;5.686;2022-09-09T15:58:59;20.50;99.90
56512;DHT22;42408;53.238;5.686;2022-09-09T16:01:26;20.60;99.90
56512;DHT22;42408;53.238;5.686;2022-09-09T16:03:52;20.70;99.90
56512;DHT22;42408;53.238;5.686;2022-09-09T16:06:21;20.70;99.90
56512;DHT22;42408;53.238;5.686;2022-09-09T16:08:49;20.50;99.90
56512;DHT22;42408;53.238;5.686;2022-09-09T16:11:18;20.40;99.90
56512;DHT22;42408;53.238;5.686;2022-09-09T16:13:46;20.40;99.90
56512;DHT22;42408;53.238;5.686;2022-09-09T16:16:13;20.30;99.90
56512;DHT22;42408;53.238;5.686;2022-09-09T16:18:42;20.00;99.90
56512;DHT22;42408;53.238;5.686;2022-09-09T16:21:17;19.80;99.90
56512;DHT22;42408;53.238;5.686;2022-09-09T16:23:43;19.80;99.90
56512;DHT22;42408;53.238;5.686;2022-09-09T16:26:12;19.70;99.90
56512;DHT22;42408;53.238;5.686;2022-09-09T16:28:38;19.50;99.90
56512;DHT22;42408;53.238;5.686;2022-09-09T16:31:09;19.50;99.90
56512;DHT22;42408;53.238;5.686;2022-09-09T16:33:36;19.40;99.90
56512;DHT22;42408;53.238;5.686;2022-09-09T16:36:13;19.20;99.90
56512;DHT22;42408;53.238;5.686;2022-09-09T16:38:39;19.20;99.90
56512;DHT22;42408;53.238;5.686;2022-09-09T16:41:06;18.90;99.90
56512;DHT22;42408;53.238;5.686;2022-09-09T16:43:33;18.70;99.90
56512;DHT22;42408;53.238;5.686;2022-09-09T16:45:59;18.60;99.90
56512;DHT22;42408;53.238;5.686;2022-09-09T16:48:31;18.40;99.90
56512;DHT22;42408;53.238;5.686;2022-09-09T16:51:07;18.40;99.90
56512;DHT22;42408;53.238;5.686;2022-09-09T16:53:34;18.30;99.90
56512;DHT22;42408;53.238;5.686;2022-09-09T16:56:06;18.20;99.90
56512;DHT22;42408;53.238;5.686;2022-09-09T16:58:32;18.20;99.90
56512;DHT22;42408;53.238;5.686;2022-09-09T17:00:59;18.10;99.90
56512;DHT22;42408;53.238;5.686;2022-09-09T17:03:24;18.10;99.90
56512;DHT22;42408;53.238;5.686;2022-09-09T17:05:50;18.10;99.90
56512;DHT22;42408;53.238;5.686;2022-09-09T17:08:16;18.10;99.90
56512;DHT22;42408;53.238;5.686;2022-09-09T17:10:42;18.20;99.90
56512;DHT22;42408;53.238;5.686;2022-09-09T17:13:08;18.10;99.90
56512;DHT22;42408;53.238;5.686;2022-09-09T17:15:39;18.10;99.90
56512;DHT22;42408;53.238;5.686;2022-09-09T17:18:08;18.10;99.90
56512;DHT22;42408;53.238;5.686;2022-09-09T17:20:38;18.20;99.90
56512;DHT22;42408;53.238;5.686;2022-09-09T17:23:05;18.10;99.90
56512;DHT22;42408;53.238;5.686;2022-09-09T17:25:31;18.10;99.90
56512;DHT22;42408;53.238;5.686;2022-09-09T17:27:57;18.10;99.90
56512;DHT22;42408;53.238;5.686;2022-09-09T17:30:23;18.10;99.90
56512;DHT22;42408;53.238;5.686;2022-09-09T17:32:49;18.00;99.90
56512;DHT22;42408;53.238;5.686;2022-09-09T17:35:14;18.00;99.90
56512;DHT22;42408;53.238;5.686;2022-09-09T17:37:40;18.00;99.90
56512;DHT22;42408;53.238;5.686;2022-09-09T17:40:07;18.00;99.90